Time;durP1;ratioP1;P1;durP2;ratioP2;P2;SDS_P1;SDS_P2;PMS_P1;PMS_P2;Temp;Humidity;BMP_temperature;BMP_pressure;BME280_temperature;BME280_humidity;BME280_pressure;Samples;Min_cycle;Max_cycle;Signal;HPM_P1;HPM_P2
2022/12/15 00:39:57;;;;;;;;;;;0.00;52.40;;;;;;5018445;28;20283;-87
2022/12/15 00:42:23;;;;;;;;;;;0.00;52.20;;;;;;5031206;28;19963;-87
2022/12/15 00:44:49;;;;;;;;;;;0.00;51.70;;;;;;5032770;28;19916;-86
2022/12/15 00:47:15;;;;;;;;;;;0.00;51.30;;;;;;5032902;28;19921;-86
2022/12/15 01:22:35;;;;;;;;;;;0.00;53.10;;;;;;5031788;28;20288;-87
2022/12/15 01:25:00;;;;;;;;;;;0.00;52.90;;;;;;5013742;28;20000;-86
2022/12/15 01:27:25;;;;;;;;;;;0.00;52.90;;;;;;5032237;28;19995;-86
2022/12/15 01:29:51;;;;;;;;;;;0.00;52.90;;;;;;5032083;28;19909;-88
2022/12/15 01:32:16;;;;;;;;;;;0.00;52.70;;;;;;5030660;28;20341;-87
2022/12/15 01:34:42;;;;;;;;;;;0.00;52.70;;;;;;5029184;28;20371;-86
2022/12/15 01:37:07;;;;;;;;;;;0.10;52.60;;;;;;5021015;28;19957;-87
2022/12/15 01:42:17;;;;;;;;;;;0.10;52.40;;;;;;5031563;28;19920;-87
2022/12/15 01:44:43;;;;;;;;;;;0.10;52.70;;;;;;5029228;28;19913;-88
2022/12/15 01:47:12;;;;;;;;;;;0.10;52.60;;;;;;5024281;28;19921;-88
2022/12/15 01:49:38;;;;;;;;;;;0.10;52.40;;;;;;5030181;28;19952;-87
2022/12/15 01:52:05;;;;;;;;;;;0.10;52.40;;;;;;5029621;28;20500;-87
2022/12/15 01:54:34;;;;;;;;;;;0.10;52.20;;;;;;5013770;28;20000;-89
2022/12/15 01:57:02;;;;;;;;;;;0.10;52.00;;;;;;5030597;28;19917;-86
2022/12/15 01:59:34;;;;;;;;;;;0.10;51.90;;;;;;5030873;28;19913;-90
2022/12/15 02:01:59;;;;;;;;;;;0.10;52.10;;;;;;5030884;28;19928;-88
2022/12/15 02:04:25;;;;;;;;;;;0.10;52.10;;;;;;5031322;28;20423;-87
2022/12/15 02:06:51;;;;;;;;;;;0.10;52.00;;;;;;5029308;28;19917;-88
2022/12/15 02:09:18;;;;;;;;;;;0.10;52.70;;;;;;5022619;28;19920;-89
2022/12/15 02:11:49;;;;;;;;;;;0.20;53.30;;;;;;5015939;28;19924;-87
2022/12/15 02:14:34;;;;;;;;;;;0.20;53.50;;;;;;5031956;28;19975;-85
2022/12/15 02:17:15;;;;;;;;;;;0.30;53.70;;;;;;5031254;28;19914;-88
2022/12/15 02:20:03;;;;;;;;;;;0.30;54.00;;;;;;5027863;28;19931;-87
2022/12/15 02:22:44;;;;;;;;;;;0.40;54.00;;;;;;4981561;28;19917;-87
2022/12/15 02:25:20;;;;;;;;;;;0.40;53.90;;;;;;5009426;28;19924;-89
2022/12/15 02:27:58;;;;;;;;;;;0.40;53.60;;;;;;5012809;28;20021;-87
2022/12/15 02:30:26;;;;;;;;;;;0.50;53.60;;;;;;5022988;28;19921;-87
2022/12/15 02:32:51;;;;;;;;;;;0.50;53.50;;;;;;5028918;28;19917;-88
2022/12/15 02:35:22;;;;;;;;;;;0.60;53.50;;;;;;5031788;28;20310;-87
2022/12/15 02:37:48;;;;;;;;;;;0.50;53.50;;;;;;5028325;28;19921;-88
2022/12/15 02:40:13;;;;;;;;;;;0.50;53.60;;;;;;5029243;28;20375;-85
2022/12/15 02:42:42;;;;;;;;;;;0.60;53.70;;;;;;5028029;28;20007;-87
2022/12/15 02:45:13;;;;;;;;;;;0.60;53.80;;;;;;5029471;28;19920;-89
2022/12/15 02:47:58;;;;;;;;;;;0.60;53.70;;;;;;5025093;28;19921;-89
2022/12/15 02:50:43;;;;;;;;;;;0.60;53.60;;;;;;5028617;28;20333;-87
2022/12/15 02:53:17;;;;;;;;;;;0.60;53.50;;;;;;5028270;28;20307;-89
2022/12/15 02:55:46;;;;;;;;;;;0.60;53.70;;;;;;5031486;28;19920;-87
2022/12/15 02:58:30;;;;;;;;;;;0.60;53.70;;;;;;5028405;28;19925;-87
2022/12/15 03:01:08;;;;;;;;;;;0.60;53.50;;;;;;5029688;28;19971;-88
2022/12/15 03:03:34;;;;;;;;;;;0.60;53.50;;;;;;5028970;28;20360;-89
2022/12/15 03:06:01;;;;;;;;;;;0.60;53.70;;;;;;5030107;28;20279;-90
2022/12/15 03:08:27;;;;;;;;;;;0.60;53.60;;;;;;5029015;28;19917;-86
2022/12/15 03:10:53;;;;;;;;;;;0.60;53.50;;;;;;5028290;28;20015;-88
2022/12/15 03:13:19;;;;;;;;;;;0.60;53.40;;;;;;5028278;28;19975;-89
2022/12/15 03:15:45;;;;;;;;;;;0.60;53.30;;;;;;5033029;28;20048;-87
2022/12/15 03:18:10;;;;;;;;;;;0.60;53.10;;;;;;5031877;28;19917;-87
2022/12/15 03:20:35;;;;;;;;;;;0.60;53.20;;;;;;5033744;28;19925;-87
2022/12/15 03:23:01;;;;;;;;;;;0.60;53.00;;;;;;5031635;28;19982;-86
2022/12/15 03:25:27;;;;;;;;;;;0.60;53.00;;;;;;5033136;28;20378;-87
2022/12/15 03:27:52;;;;;;;;;;;0.50;53.60;;;;;;5032795;28;19929;-86
2022/12/15 03:30:18;;;;;;;;;;;0.60;53.70;;;;;;5031207;28;20380;-87
2022/12/15 03:32:43;;;;;;;;;;;0.60;54.10;;;;;;5031516;28;20012;-89
2022/12/15 03:35:09;;;;;;;;;;;0.60;54.10;;;;;;5032025;28;19917;-85
2022/12/15 03:37:34;;;;;;;;;;;0.60;54.40;;;;;;5031938;28;20062;-85
2022/12/15 03:40:00;;;;;;;;;;;0.70;54.20;;;;;;5031918;28;19923;-86
2022/12/15 03:43:10;;;;;;;;;;;0.70;53.90;;;;;;5031277;28;19917;-88
2022/12/15 03:45:11;;;;;;;;;;;0.70;53.90;;;;;;5013312;28;19914;-88
2022/12/15 03:47:39;;;;;;;;;;;0.70;54.00;;;;;;5013514;28;20340;-87
2022/12/15 03:50:05;;;;;;;;;;;0.70;54.20;;;;;;5013354;28;19968;-86
2022/12/15 03:52:30;;;;;;;;;;;0.70;54.30;;;;;;5013687;28;20372;-88
2022/12/15 03:54:56;;;;;;;;;;;0.70;54.00;;;;;;5032531;28;19946;-87
2022/12/15 03:57:22;;;;;;;;;;;0.70;53.60;;;;;;5033323;28;19967;-87
2022/12/15 03:59:47;;;;;;;;;;;0.70;53.40;;;;;;5033945;28;19921;-89
2022/12/15 04:02:13;;;;;;;;;;;0.70;53.10;;;;;;5034002;28;19924;-86
2022/12/15 04:04:38;;;;;;;;;;;0.70;52.80;;;;;;5031579;28;19913;-87
2022/12/15 04:07:04;;;;;;;;;;;0.70;52.60;;;;;;5033049;28;20384;-87
2022/12/15 04:09:29;;;;;;;;;;;0.70;52.80;;;;;;5033784;28;19940;-87
2022/12/15 04:11:55;;;;;;;;;;;0.60;52.80;;;;;;5033412;28;20304;-87
2022/12/15 04:14:20;;;;;;;;;;;0.60;52.70;;;;;;5032430;28;19932;-88
2022/12/15 04:16:45;;;;;;;;;;;0.60;52.70;;;;;;5030274;28;19924;-89
2022/12/15 04:21:56;;;;;;;;;;;0.60;52.70;;;;;;5013237;28;19933;-86
2022/12/15 05:32:48;;;;;;;;;;;1.00;54.70;;;;;;5023865;28;19924;-88
2022/12/15 05:35:13;;;;;;;;;;;1.00;54.70;;;;;;5011264;28;19914;-88
2022/12/15 05:37:39;;;;;;;;;;;1.00;54.50;;;;;;5027426;28;19917;-89
2022/12/15 05:40:04;;;;;;;;;;;1.00;54.40;;;;;;5028014;28;19989;-88
2022/12/15 05:42:32;;;;;;;;;;;1.10;54.20;;;;;;5029644;28;21431;-87
2022/12/15 05:44:57;;;;;;;;;;;1.10;54.10;;;;;;5030552;28;19960;-88
2022/12/15 05:47:22;;;;;;;;;;;1.10;53.90;;;;;;5030495;28;20014;-89
2022/12/15 05:49:48;;;;;;;;;;;1.10;53.70;;;;;;5029915;28;19979;-86
2022/12/15 05:52:14;;;;;;;;;;;1.10;53.70;;;;;;5032661;28;20008;-87
2022/12/15 05:54:39;;;;;;;;;;;1.10;53.60;;;;;;5032050;28;19920;-90
2022/12/15 05:57:05;;;;;;;;;;;1.00;53.90;;;;;;5032769;28;19917;-89
2022/12/15 05:59:31;;;;;;;;;;;1.10;54.00;;;;;;5031601;28;19914;-86
2022/12/15 06:01:56;;;;;;;;;;;1.10;54.00;;;;;;5030544;28;19921;-88
2022/12/15 06:04:22;;;;;;;;;;;1.00;54.10;;;;;;5028896;28;19917;-88
2022/12/15 06:06:47;;;;;;;;;;;1.00;54.20;;;;;;5030957;28;19924;-87
2022/12/15 06:09:13;;;;;;;;;;;1.10;54.30;;;;;;5030121;28;19925;-87
2022/12/15 06:11:38;;;;;;;;;;;1.10;54.30;;;;;;5026654;28;20333;-87
2022/12/15 06:14:07;;;;;;;;;;;1.10;54.20;;;;;;5009733;28;19992;-88
2022/12/15 06:16:32;;;;;;;;;;;1.10;54.40;;;;;;5012668;28;20607;-87
2022/12/15 06:18:59;;;;;;;;;;;1.10;54.70;;;;;;5011980;28;19917;-86
2022/12/15 06:21:26;;;;;;;;;;;1.10;54.50;;;;;;5027301;28;19925;-88
2022/12/15 06:23:52;;;;;;;;;;;1.20;54.30;;;;;;5030917;28;19984;-87
2022/12/15 06:26:19;;;;;;;;;;;1.20;54.20;;;;;;5024563;28;19913;-89
2022/12/15 06:28:45;;;;;;;;;;;1.20;54.10;;;;;;5027974;28;20360;-89
2022/12/15 06:31:11;;;;;;;;;;;1.20;54.20;;;;;;5024516;28;19923;-89
2022/12/15 06:33:37;;;;;;;;;;;1.20;54.50;;;;;;5015198;28;19913;-90
2022/12/15 06:36:04;;;;;;;;;;;1.20;54.50;;;;;;5012732;28;19913;-89
2022/12/15 06:38:29;;;;;;;;;;;1.20;54.40;;;;;;5031420;28;19971;-87
2022/12/15 06:40:55;;;;;;;;;;;1.20;54.10;;;;;;5027203;28;19960;-86
2022/12/15 06:43:21;;;;;;;;;;;1.20;53.90;;;;;;5030025;28;19925;-86
2022/12/15 06:45:47;;;;;;;;;;;1.20;53.80;;;;;;5020350;28;19957;-89
2022/12/15 06:48:12;;;;;;;;;;;1.20;53.60;;;;;;5025204;28;19925;-87
2022/12/15 06:50:39;;;;;;;;;;;1.20;53.90;;;;;;5029407;28;19917;-89
2022/12/15 06:53:05;;;;;;;;;;;1.20;53.90;;;;;;5030312;28;19929;-87
2022/12/15 06:55:30;;;;;;;;;;;1.20;53.60;;;;;;5028683;28;19909;-89
2022/12/15 06:57:56;;;;;;;;;;;1.20;53.70;;;;;;5028948;28;19932;-87
2022/12/15 07:00:22;;;;;;;;;;;1.20;53.80;;;;;;5025337;28;19932;-87
2022/12/15 07:02:47;;;;;;;;;;;1.20;53.50;;;;;;5008975;28;20048;-88
2022/12/15 07:05:13;;;;;;;;;;;1.20;53.30;;;;;;5019608;28;19933;-85
2022/12/15 07:07:38;;;;;;;;;;;1.20;53.40;;;;;;5031035;28;19964;-88
2022/12/15 07:10:04;;;;;;;;;;;1.20;53.40;;;;;;5031276;28;19913;-89
2022/12/15 07:12:30;;;;;;;;;;;1.20;53.50;;;;;;5026857;28;19913;-86
2022/12/15 07:14:55;;;;;;;;;;;1.20;53.70;;;;;;5027938;28;19921;-86
2022/12/15 07:17:21;;;;;;;;;;;1.20;53.50;;;;;;5029066;28;20383;-89
2022/12/15 07:19:46;;;;;;;;;;;1.20;53.30;;;;;;5031095;28;19948;-88
2022/12/15 07:22:12;;;;;;;;;;;1.20;53.30;;;;;;5027275;28;20000;-90
2022/12/15 07:24:37;;;;;;;;;;;1.20;53.60;;;;;;5028782;28;19918;-88
2022/12/15 07:27:03;;;;;;;;;;;1.20;53.40;;;;;;5029442;28;20076;-85
2022/12/15 07:29:28;;;;;;;;;;;1.10;53.10;;;;;;5027927;28;19921;-85
2022/12/15 07:31:54;;;;;;;;;;;1.10;52.70;;;;;;5028172;28;19913;-86
2022/12/15 07:34:20;;;;;;;;;;;1.10;53.00;;;;;;5030168;28;20571;-87
2022/12/15 07:36:45;;;;;;;;;;;1.10;53.30;;;;;;5029613;28;19913;-89
2022/12/15 07:39:11;;;;;;;;;;;1.10;53.60;;;;;;5027746;28;19917;-89
2022/12/15 07:41:37;;;;;;;;;;;1.20;54.00;;;;;;5027397;28;19925;-86
2022/12/15 07:44:02;;;;;;;;;;;1.20;54.40;;;;;;5028171;28;19925;-89
2022/12/15 07:46:28;;;;;;;;;;;1.30;54.70;;;;;;5029362;28;19960;-88
2022/12/15 07:48:53;;;;;;;;;;;1.40;54.90;;;;;;5030557;28;19913;-90
2022/12/15 07:51:20;;;;;;;;;;;1.50;55.10;;;;;;5027107;28;19925;-88
2022/12/15 07:53:48;;;;;;;;;;;1.70;55.40;;;;;;5020516;28;19940;-86
2022/12/15 07:56:14;;;;;;;;;;;1.80;55.60;;;;;;5021996;28;20353;-88
2022/12/15 07:58:39;;;;;;;;;;;2.00;55.90;;;;;;5019525;28;20023;-87
2022/12/15 08:01:06;;;;;;;;;;;2.20;56.10;;;;;;5016091;28;19929;-88
2022/12/15 08:03:31;;;;;;;;;;;2.30;56.40;;;;;;5012437;28;19914;-89
2022/12/15 08:05:57;;;;;;;;;;;2.60;56.50;;;;;;5023085;28;19913;-90
2022/12/15 08:08:22;;;;;;;;;;;2.70;56.50;;;;;;5020549;28;20314;-87
2022/12/15 08:10:48;;;;;;;;;;;2.80;56.40;;;;;;5022922;28;19913;-88
2022/12/15 08:13:14;;;;;;;;;;;3.00;56.50;;;;;;5023131;28;19925;-89
2022/12/15 08:15:40;;;;;;;;;;;3.20;56.50;;;;;;5026333;28;19917;-89
2022/12/15 08:18:06;;;;;;;;;;;3.30;56.30;;;;;;5025901;28;19918;-87
2022/12/15 08:20:32;;;;;;;;;;;3.40;55.70;;;;;;5024849;28;20381;-87
2022/12/15 08:22:58;;;;;;;;;;;3.50;56.40;;;;;;5022751;28;20021;-87
2022/12/15 08:25:24;;;;;;;;;;;3.60;56.30;;;;;;5011794;28;20276;-87
2022/12/15 08:27:50;;;;;;;;;;;3.70;56.00;;;;;;5034215;28;20559;-86
2022/12/15 08:30:17;;;;;;;;;;;3.80;56.90;;;;;;5034555;28;19917;-87
2022/12/15 08:32:43;;;;;;;;;;;4.10;57.80;;;;;;5029214;28;19917;-87
2022/12/15 08:35:08;;;;;;;;;;;4.40;58.50;;;;;;5029566;28;20399;-88
2022/12/15 08:37:34;;;;;;;;;;;4.70;58.80;;;;;;5025272;28;20339;-87
2022/12/15 08:39:59;;;;;;;;;;;4.90;58.50;;;;;;5022325;28;19979;-86
2022/12/15 08:42:25;;;;;;;;;;;5.20;58.90;;;;;;5025845;28;19928;-88
2022/12/15 08:44:50;;;;;;;;;;;5.40;58.40;;;;;;5023976;28;20024;-86
2022/12/15 08:47:16;;;;;;;;;;;5.60;58.50;;;;;;5038851;28;19972;-86
2022/12/15 08:49:41;;;;;;;;;;;5.80;58.30;;;;;;5021694;28;19922;-86
2022/12/15 08:52:07;;;;;;;;;;;6.00;58.50;;;;;;5020703;28;20299;-87
2022/12/15 08:54:32;;;;;;;;;;;6.30;58.80;;;;;;5019178;28;19925;-87
2022/12/15 08:56:58;;;;;;;;;;;6.50;58.40;;;;;;5013671;28;19921;-86
2022/12/15 08:59:24;;;;;;;;;;;6.70;58.30;;;;;;5014036;28;19925;-86
2022/12/15 09:01:49;;;;;;;;;;;6.80;57.90;;;;;;5027194;28;19928;-87
2022/12/15 09:04:15;;;;;;;;;;;7.00;57.90;;;;;;5027838;28;20430;-87
2022/12/15 09:06:41;;;;;;;;;;;7.20;57.70;;;;;;5027202;28;20024;-87
2022/12/15 09:09:07;;;;;;;;;;;7.30;57.60;;;;;;5027204;28;20012;-86
2022/12/15 09:11:33;;;;;;;;;;;7.50;57.30;;;;;;5028767;28;19917;-85
2022/12/15 09:13:58;;;;;;;;;;;7.60;56.70;;;;;;5022156;28;20464;-86
2022/12/15 09:16:24;;;;;;;;;;;7.70;56.70;;;;;;5027262;28;19932;-85
2022/12/15 09:18:51;;;;;;;;;;;7.80;56.90;;;;;;5027663;28;19968;-85
2022/12/15 09:21:16;;;;;;;;;;;7.90;57.00;;;;;;5029455;28;19921;-84
2022/12/15 09:23:45;;;;;;;;;;;8.10;56.90;;;;;;5023737;28;19983;-84
2022/12/15 09:26:13;;;;;;;;;;;8.20;56.50;;;;;;5028142;28;19924;-85
2022/12/15 09:28:39;;;;;;;;;;;8.10;56.00;;;;;;5028381;28;19988;-86
2022/12/15 09:31:06;;;;;;;;;;;8.10;56.20;;;;;;5021029;28;19917;-85
2022/12/15 09:33:31;;;;;;;;;;;8.00;56.40;;;;;;5026036;28;19928;-84
2022/12/15 09:35:57;;;;;;;;;;;8.00;56.30;;;;;;5021874;28;19914;-85
2022/12/15 09:38:23;;;;;;;;;;;8.10;56.70;;;;;;5018428;28;19960;-87
2022/12/15 09:40:48;;;;;;;;;;;8.20;56.90;;;;;;5026569;28;19960;-88
2022/12/15 09:43:23;;;;;;;;;;;8.30;56.60;;;;;;5016376;28;20400;-87
2022/12/15 09:45:51;;;;;;;;;;;8.30;56.40;;;;;;5012813;28;19913;-85
2022/12/15 09:48:22;;;;;;;;;;;8.40;56.90;;;;;;5026702;28;19991;-85
2022/12/15 09:50:49;;;;;;;;;;;8.50;57.20;;;;;;5027581;28;20004;-86
2022/12/15 09:53:16;;;;;;;;;;;8.70;57.30;;;;;;5027064;28;19931;-86
2022/12/15 09:55:42;;;;;;;;;;;8.80;57.10;;;;;;5019445;28;19924;-86
2022/12/15 09:58:31;;;;;;;;;;;9.00;57.00;;;;;;5008864;28;20020;-87
2022/12/15 10:01:01;;;;;;;;;;;9.10;56.90;;;;;;5013980;28;19925;-86
2022/12/15 10:03:38;;;;;;;;;;;9.30;56.90;;;;;;5021919;28;19917;-85
2022/12/15 10:06:12;;;;;;;;;;;9.40;57.00;;;;;;5025515;28;19924;-87
2022/12/15 10:08:40;;;;;;;;;;;9.60;57.00;;;;;;5028823;28;19921;-86
2022/12/15 10:11:24;;;;;;;;;;;9.70;56.60;;;;;;5027948;28;19991;-87
2022/12/15 10:14:13;;;;;;;;;;;9.70;55.70;;;;;;5026492;28;20391;-86
2022/12/15 10:16:57;;;;;;;;;;;9.80;56.50;;;;;;4979664;28;19921;-87
2022/12/15 10:19:28;;;;;;;;;;;9.80;56.60;;;;;;5043522;28;20439;-87
2022/12/15 10:21:55;;;;;;;;;;;9.90;57.00;;;;;;5024649;28;19940;-86
2022/12/15 10:24:21;;;;;;;;;;;10.00;56.90;;;;;;5023728;28;20342;-86
2022/12/15 10:26:51;;;;;;;;;;;10.10;56.80;;;;;;5026338;28;19917;-86
2022/12/15 10:29:26;;;;;;;;;;;10.20;55.70;;;;;;5026517;28;19921;-87
2022/12/15 10:31:59;;;;;;;;;;;10.20;55.90;;;;;;5023660;28;19921;-86
2022/12/15 10:34:36;;;;;;;;;;;10.10;55.70;;;;;;5023685;28;19925;-87
2022/12/15 10:37:02;;;;;;;;;;;10.00;55.30;;;;;;5013547;28;20245;-86
2022/12/15 10:39:54;;;;;;;;;;;10.10;55.30;;;;;;5024716;28;20151;-87
2022/12/15 10:42:21;;;;;;;;;;;10.10;55.70;;;;;;5014322;28;19979;-87
2022/12/15 10:44:54;;;;;;;;;;;10.00;55.30;;;;;;5028486;28;19960;-87
2022/12/15 10:47:22;;;;;;;;;;;9.90;55.60;;;;;;5026903;28;19917;-88
2022/12/15 10:49:47;;;;;;;;;;;9.90;55.50;;;;;;5011582;28;20426;-89
2022/12/15 10:52:15;;;;;;;;;;;10.00;55.90;;;;;;5020866;28;19921;-87
2022/12/15 10:54:43;;;;;;;;;;;9.90;55.40;;;;;;5028966;28;19963;-88
2022/12/15 10:57:18;;;;;;;;;;;10.00;56.20;;;;;;5011457;28;20292;-87
2022/12/15 10:59:43;;;;;;;;;;;10.00;55.70;;;;;;5011408;28;20040;-88
2022/12/15 11:02:24;;;;;;;;;;;10.00;55.90;;;;;;5022530;28;19945;-88
2022/12/15 11:05:25;;;;;;;;;;;10.10;56.30;;;;;;5041328;28;19921;-88
2022/12/15 11:07:53;;;;;;;;;;;10.20;57.00;;;;;;4960390;28;19950;-87
2022/12/15 11:10:26;;;;;;;;;;;10.30;56.50;;;;;;5018684;28;19921;-88
2022/12/15 11:13:01;;;;;;;;;;;10.30;56.40;;;;;;5029495;28;19917;-88
2022/12/15 11:15:30;;;;;;;;;;;10.30;56.30;;;;;;5026616;28;19921;-87
2022/12/15 11:18:01;;;;;;;;;;;10.30;56.40;;;;;;5048265;28;20547;-86
2022/12/15 11:20:31;;;;;;;;;;;10.30;56.20;;;;;;5025480;28;19933;-88
2022/12/15 11:22:59;;;;;;;;;;;10.30;56.30;;;;;;5026155;28;19917;-85
2022/12/15 11:25:48;;;;;;;;;;;10.40;56.20;;;;;;5026140;28;19953;-86
2022/12/15 11:28:15;;;;;;;;;;;10.30;56.20;;;;;;5014819;28;19923;-87
2022/12/15 11:30:44;;;;;;;;;;;10.30;55.40;;;;;;5026329;28;19913;-86
2022/12/15 11:33:10;;;;;;;;;;;10.30;55.80;;;;;;5022753;28;19933;-87
2022/12/15 11:35:44;;;;;;;;;;;10.20;55.10;;;;;;5026796;28;19920;-86
2022/12/15 11:38:22;;;;;;;;;;;10.10;55.00;;;;;;5033470;28;19967;-87
2022/12/15 11:40:49;;;;;;;;;;;10.00;55.00;;;;;;5034956;28;19921;-86
2022/12/15 11:43:33;;;;;;;;;;;9.80;55.10;;;;;;5024234;28;19923;-87
2022/12/15 11:45:58;;;;;;;;;;;9.80;55.40;;;;;;5032772;28;20352;-88
2022/12/15 11:48:34;;;;;;;;;;;9.70;55.90;;;;;;5028290;28;20349;-88
2022/12/15 11:51:11;;;;;;;;;;;9.50;55.90;;;;;;5034146;28;19917;-87
2022/12/15 11:53:48;;;;;;;;;;;9.30;55.80;;;;;;5017679;28;20725;-88
2022/12/15 11:56:32;;;;;;;;;;;8.90;55.90;;;;;;5011339;28;19917;-87
2022/12/15 11:59:08;;;;;;;;;;;8.50;56.60;;;;;;5012885;28;19948;-88
2022/12/15 12:01:36;;;;;;;;;;;8.20;57.10;;;;;;5012278;28;19925;-88
2022/12/15 12:04:13;;;;;;;;;;;7.90;57.00;;;;;;5029171;28;19966;-88
2022/12/15 12:06:42;;;;;;;;;;;7.70;57.60;;;;;;5013059;28;19918;-88
2022/12/15 12:09:27;;;;;;;;;;;7.50;57.70;;;;;;5045484;28;19921;-87
2022/12/15 12:11:55;;;;;;;;;;;7.30;58.20;;;;;;5025025;28;20590;-87
2022/12/15 12:14:30;;;;;;;;;;;7.20;58.30;;;;;;5028210;28;19921;-88
2022/12/15 12:17:13;;;;;;;;;;;7.00;58.40;;;;;;5034740;28;20224;-89
2022/12/15 12:19:51;;;;;;;;;;;6.90;58.70;;;;;;5012391;28;20440;-88
2022/12/15 12:22:22;;;;;;;;;;;6.80;58.90;;;;;;5023433;28;19929;-88
2022/12/15 12:25:07;;;;;;;;;;;6.70;58.90;;;;;;5031095;28;19928;-87
2022/12/15 12:27:38;;;;;;;;;;;6.70;59.40;;;;;;5030104;28;19917;-86
2022/12/15 12:30:10;;;;;;;;;;;6.60;59.50;;;;;;5041653;28;19921;-89
2022/12/15 12:32:47;;;;;;;;;;;6.60;59.30;;;;;;5017321;28;19917;-89
2022/12/15 12:35:22;;;;;;;;;;;6.50;59.20;;;;;;5025864;28;19929;-87
2022/12/15 12:37:51;;;;;;;;;;;6.40;59.20;;;;;;5025203;28;19917;-88
2022/12/15 12:40:17;;;;;;;;;;;6.40;59.50;;;;;;5020469;28;19991;-86
2022/12/15 12:43:04;;;;;;;;;;;6.40;59.50;;;;;;5018753;28;19921;-85
2022/12/15 12:45:46;;;;;;;;;;;6.40;59.50;;;;;;5024288;28;19928;-87
2022/12/15 12:48:17;;;;;;;;;;;6.40;59.20;;;;;;5027719;28;20070;-87
2022/12/15 12:50:43;;;;;;;;;;;6.40;59.30;;;;;;5025798;28;20364;-85
2022/12/15 12:53:23;;;;;;;;;;;6.30;59.20;;;;;;5017615;28;19998;-87
2022/12/15 12:55:49;;;;;;;;;;;6.40;59.30;;;;;;5021055;28;19917;-87
2022/12/15 12:58:30;;;;;;;;;;;6.30;59.10;;;;;;5024008;28;20587;-87
2022/12/15 13:01:08;;;;;;;;;;;6.30;58.70;;;;;;5022976;28;19936;-84
2022/12/15 13:03:37;;;;;;;;;;;6.30;58.80;;;;;;5036693;28;19921;-86
2022/12/15 13:06:18;;;;;;;;;;;6.30;59.10;;;;;;5023953;28;20331;-85
2022/12/15 13:08:45;;;;;;;;;;;6.30;58.90;;;;;;5026927;28;20728;-87
2022/12/15 13:11:29;;;;;;;;;;;6.30;59.00;;;;;;5025085;28;20489;-85
2022/12/15 13:14:07;;;;;;;;;;;6.30;58.90;;;;;;5038995;28;19921;-86
2022/12/15 13:16:35;;;;;;;;;;;6.20;59.20;;;;;;5041572;28;19924;-86
2022/12/15 13:19:05;;;;;;;;;;;6.20;59.20;;;;;;5028981;28;19925;-87
2022/12/15 13:21:43;;;;;;;;;;;6.20;59.00;;;;;;5036864;28;20284;-86
2022/12/15 13:24:34;;;;;;;;;;;6.20;58.90;;;;;;5024978;28;20296;-85
2022/12/15 13:27:18;;;;;;;;;;;6.20;59.00;;;;;;5030552;28;20039;-85
2022/12/15 13:29:59;;;;;;;;;;;6.20;59.00;;;;;;5021910;28;19951;-86
2022/12/15 13:32:34;;;;;;;;;;;6.20;58.80;;;;;;5019395;28;19917;-86
2022/12/15 13:35:14;;;;;;;;;;;6.20;58.90;;;;;;5018691;28;20357;-87
2022/12/15 13:37:39;;;;;;;;;;;6.20;58.80;;;;;;5024131;28;19943;-86
2022/12/15 13:40:23;;;;;;;;;;;6.20;58.70;;;;;;5031133;28;19925;-87
2022/12/15 13:43:04;;;;;;;;;;;6.20;58.60;;;;;;5021355;28;20000;-85
2022/12/15 13:45:34;;;;;;;;;;;6.20;58.70;;;;;;5028014;28;19928;-88
2022/12/15 13:48:00;;;;;;;;;;;6.10;58.70;;;;;;5025428;28;20443;-86
2022/12/15 13:50:37;;;;;;;;;;;6.10;58.60;;;;;;5024269;28;19971;-88
2022/12/15 13:53:02;;;;;;;;;;;6.10;58.70;;;;;;5020403;28;19944;-86
2022/12/15 13:55:38;;;;;;;;;;;6.10;58.70;;;;;;5021908;28;20304;-86
2022/12/15 13:58:11;;;;;;;;;;;6.10;58.50;;;;;;5020434;28;19928;-86
2022/12/15 14:00:37;;;;;;;;;;;6.10;58.40;;;;;;5039148;28;20501;-87
2022/12/15 14:03:10;;;;;;;;;;;6.10;58.50;;;;;;5016904;28;19928;-86
2022/12/15 14:05:37;;;;;;;;;;;6.10;58.30;;;;;;5026447;28;19913;-86
2022/12/15 14:08:07;;;;;;;;;;;6.00;58.20;;;;;;5014349;28;20292;-85
2022/12/15 14:10:42;;;;;;;;;;;6.10;58.00;;;;;;5028050;28;20353;-86
2022/12/15 14:13:12;;;;;;;;;;;6.00;58.20;;;;;;5025204;28;19928;-87
2022/12/15 14:15:41;;;;;;;;;;;6.00;58.20;;;;;;5025321;28;19959;-86
2022/12/15 14:18:20;;;;;;;;;;;5.90;58.10;;;;;;5016607;28;20048;-87
2022/12/15 14:20:45;;;;;;;;;;;5.90;57.90;;;;;;5026663;28;19971;-85
2022/12/15 14:23:18;;;;;;;;;;;5.90;57.60;;;;;;5018379;28;19964;-85
2022/12/15 14:25:51;;;;;;;;;;;5.80;57.40;;;;;;5014741;28;19924;-86
2022/12/15 14:28:28;;;;;;;;;;;5.80;57.20;;;;;;5018727;28;20393;-87
2022/12/15 14:30:56;;;;;;;;;;;5.70;57.00;;;;;;5016878;28;19917;-87
2022/12/15 14:33:21;;;;;;;;;;;5.60;56.60;;;;;;5014844;28;19928;-87
2022/12/15 14:35:49;;;;;;;;;;;5.50;56.80;;;;;;5013230;28;19917;-88
2022/12/15 14:38:16;;;;;;;;;;;5.50;57.00;;;;;;5028431;28;19921;-86
2022/12/15 14:40:43;;;;;;;;;;;5.50;56.90;;;;;;5021320;28;19922;-87
2022/12/15 14:43:15;;;;;;;;;;;5.40;56.60;;;;;;5020973;28;19971;-86
2022/12/15 14:45:41;;;;;;;;;;;5.30;56.50;;;;;;5024776;28;20008;-87
2022/12/15 14:48:07;;;;;;;;;;;5.30;56.00;;;;;;5020928;28;20011;-86
2022/12/15 14:50:33;;;;;;;;;;;5.20;55.70;;;;;;5024343;28;19921;-86
2022/12/15 14:53:12;;;;;;;;;;;5.10;55.30;;;;;;5018312;28;20437;-86
2022/12/15 14:55:38;;;;;;;;;;;5.00;55.20;;;;;;5019330;28;19986;-86
2022/12/15 14:58:22;;;;;;;;;;;4.90;55.10;;;;;;5018970;28;19960;-86
2022/12/15 15:00:49;;;;;;;;;;;4.80;55.00;;;;;;5022680;28;19925;-86
2022/12/15 15:03:14;;;;;;;;;;;4.70;55.20;;;;;;5019143;28;20031;-86
2022/12/15 15:05:41;;;;;;;;;;;4.70;55.30;;;;;;5019494;28;19925;-88
2022/12/15 15:08:13;;;;;;;;;;;4.60;55.40;;;;;;5012254;28;19948;-88
2022/12/15 15:10:39;;;;;;;;;;;4.50;55.50;;;;;;5023033;28;19921;-87
2022/12/15 15:13:04;;;;;;;;;;;4.50;55.50;;;;;;5027413;28;19975;-87
2022/12/15 15:15:30;;;;;;;;;;;4.40;55.30;;;;;;5022253;28;19917;-88
2022/12/15 15:17:56;;;;;;;;;;;4.30;55.00;;;;;;5023528;28;19923;-86
2022/12/15 15:20:25;;;;;;;;;;;4.30;54.60;;;;;;5017182;28;20304;-87
2022/12/15 15:23:06;;;;;;;;;;;4.20;54.50;;;;;;5017456;28;19925;-89
2022/12/15 15:25:31;;;;;;;;;;;4.10;54.40;;;;;;5026246;28;19933;-87
2022/12/15 15:28:16;;;;;;;;;;;4.00;54.40;;;;;;5031570;28;19971;-86
2022/12/15 15:30:42;;;;;;;;;;;3.90;54.60;;;;;;5029489;28;19956;-86
2022/12/15 15:33:09;;;;;;;;;;;3.80;55.10;;;;;;5024040;28;19975;-87
2022/12/15 15:35:35;;;;;;;;;;;3.80;55.20;;;;;;5027431;28;19917;-86
2022/12/15 15:38:03;;;;;;;;;;;3.80;55.30;;;;;;5033831;28;19924;-87
2022/12/15 15:40:29;;;;;;;;;;;3.70;55.50;;;;;;5029407;28;19999;-86
2022/12/15 15:42:54;;;;;;;;;;;3.80;55.80;;;;;;5023578;28;19917;-86
2022/12/15 15:45:20;;;;;;;;;;;3.80;55.60;;;;;;5027264;28;20490;-86
2022/12/15 15:47:46;;;;;;;;;;;3.80;55.10;;;;;;5033129;28;19928;-86
2022/12/15 15:50:13;;;;;;;;;;;3.70;54.80;;;;;;5029472;28;19925;-85
2022/12/15 15:52:39;;;;;;;;;;;3.70;54.60;;;;;;5024955;28;19975;-88
2022/12/15 15:55:05;;;;;;;;;;;3.60;54.20;;;;;;5026916;28;19960;-87
2022/12/15 15:57:30;;;;;;;;;;;3.50;53.90;;;;;;5026587;28;20284;-88
2022/12/15 15:59:56;;;;;;;;;;;3.40;53.60;;;;;;5027199;28;19975;-88
2022/12/15 16:02:21;;;;;;;;;;;3.30;53.80;;;;;;5023480;28;19948;-87
2022/12/15 16:04:47;;;;;;;;;;;3.30;53.90;;;;;;5027533;28;20654;-88
2022/12/15 16:07:21;;;;;;;;;;;3.20;54.10;;;;;;5028476;28;19917;-86
2022/12/15 16:09:47;;;;;;;;;;;3.20;54.20;;;;;;5030066;28;20450;-86
2022/12/15 16:12:22;;;;;;;;;;;3.10;54.00;;;;;;5016748;28;19921;-86
2022/12/15 16:14:47;;;;;;;;;;;3.10;54.00;;;;;;5029222;28;20330;-86
2022/12/15 16:17:14;;;;;;;;;;;3.10;53.90;;;;;;5020407;28;19931;-86
2022/12/15 16:19:39;;;;;;;;;;;3.00;53.70;;;;;;5028878;28;20603;-87
2022/12/15 16:22:06;;;;;;;;;;;2.90;53.50;;;;;;5019062;28;20034;-86
2022/12/15 16:24:34;;;;;;;;;;;2.80;53.20;;;;;;5023752;28;19925;-86
2022/12/15 16:27:01;;;;;;;;;;;2.70;53.00;;;;;;5023893;28;19983;-87
2022/12/15 16:29:26;;;;;;;;;;;2.70;53.30;;;;;;5028279;28;20367;-87
2022/12/15 16:31:52;;;;;;;;;;;2.60;53.90;;;;;;5026887;28;20011;-86
2022/12/15 16:34:20;;;;;;;;;;;2.60;54.10;;;;;;5022880;28;19948;-89
2022/12/15 16:36:46;;;;;;;;;;;2.60;54.10;;;;;;5027103;28;19917;-86
2022/12/15 16:39:21;;;;;;;;;;;2.60;53.90;;;;;;5019873;28;19918;-85
2022/12/15 16:41:47;;;;;;;;;;;2.50;53.60;;;;;;5030247;28;19958;-88
2022/12/15 16:44:13;;;;;;;;;;;2.40;53.20;;;;;;5027966;28;19967;-87
2022/12/15 16:46:38;;;;;;;;;;;2.40;53.00;;;;;;5030546;28;19921;-87
2022/12/15 16:49:04;;;;;;;;;;;2.30;52.90;;;;;;5034863;28;19921;-88
2022/12/15 16:51:40;;;;;;;;;;;2.30;52.70;;;;;;5019626;28;19921;-87
2022/12/15 16:54:06;;;;;;;;;;;2.20;52.70;;;;;;5025531;28;19986;-86
2022/12/15 16:56:32;;;;;;;;;;;2.10;52.80;;;;;;5027734;28;20011;-87
2022/12/15 16:58:57;;;;;;;;;;;2.00;52.70;;;;;;5025627;28;19922;-87
2022/12/15 17:01:23;;;;;;;;;;;2.00;52.40;;;;;;5021276;28;19979;-87
2022/12/15 17:03:48;;;;;;;;;;;1.80;52.20;;;;;;5019721;28;20024;-86
2022/12/15 17:06:14;;;;;;;;;;;1.80;52.10;;;;;;5025624;28;20374;-86